Main page
METAR-TAF:

METAR-TAF

Airports :

Iqaluit, Nunavut, Canada

Iqaluit Airport

latitude: 63-45N, longitude: 068-33W, elevation: 34 m

Current weather observation

The report was made 17 minutes ago, at 05:00 UTC
Wind 20 kt from the North/Northwest
Temperature -28°C
Humidity 68%
Pressure 1019 hPa
Visibility: 24.1 km
Clear sky
Low drifting snow

METAR: CYFB 260500Z 34020KT 15SM DRSN SKC M28/M32 A3010 RMK SLP200

Time: 01:17 (05:17 UTC)

Forecast

The report was made 3 hours and 40 minutes ago, at 01:37 UTC
Forecast valid from 26 at 01 UTC to 26 at 24 UTC
Wind 25 kt from the North/Northwest
Visibility: 10 km
Clear sky
Low drifting snow
Temporary
from 26 at 01 UTC to 26 at 15 UTC
Visibility: 8.0 km
Blowing snow
Becoming
from 26 at 10 UTC to 26 at 12 UTC
Wind 18 kt from the North/Northwest
From 26 at 1500 UTC
Wind 15 kt from the North/Northwest
Visibility: 10 km
Clear sky

TAF: CYFB 260137Z 2601/2624 34025KT P6SM DRSN SKC TEMPO 2601/2615 5SM BLSN BECMG 2610/2612 33018KT FM261500 33015KT P6SM SKC RMK NXT FCST BY 260600Z

Weather observations and forecasts of more than 4000 airports (METAR and TAF reports).

The available stations are represented by yellow and red dots on the map.

Hover mouse over dot to see the name of the station.

Then click to see weather observations and forecasts.

To change the map : click on the green buttons with a black cross to zoom in, on the green button with a dash to zoom out, or on the green arrows for adjacent maps.


METAR-TAF: